PWSweather.com
Personal Weather Stations
Station Observations
KVAGLENALL
West Henrico, Glen Allen, VA 23060-6503

West HenricoGlen Allen, VA 23060-6503

Lat: 37.6554, Lon: -77.5693

Elevation: 273

Station Type: Davis Vantage Pro II

Latest ConditionsUpdated 5:15:15 PM EST Thursday, Mar 5, 2015
Currently Today's Max Today's Min Today's Average
Temperature 28.1°F-2.2°C 51.9°F11.1°C 28.1°F-2.2°C 37.7°F3.2°C
Dew Point 25.7°F-3.5°C 50.6°F10.3°C 25.7°F-3.5°C 35.7°F2.1°C
Winds Calm Calm 13.0 mph NE20.9 kmh NE - 4.7 mph 7.6 kmh
Wind Gusts -- 20.2 mph32.5 kmh - -
Humidity 90% 95% 90% 92%
Pressure 30.20 in1022.7 mb 30.20 in1022.7 mb 29.90 in1012.5 mb -
Hour Temp Dew Point Humidity Winds Wind Gusts Pressure Precip Precip Rate Daily Precip Total
05:15 PM 28.1°F-2.2°C 25.7°F-3.5°C 90% Calm Calm -- 30.20 in1022.7 mb 0.09 in2.3 mm 0.00 in/hr0.0 mm/hr 0.60 in15.2 mm
05:00 PM 28.5°F-1.9°C 26.3°F-3.2°C 91% Calm Calm -- 30.18 in1022.0 mb 0.12 in3.0 mm 0.01 in/hr0.3 mm/hr 0.60 in15.2 mm
04:45 PM 29.0°F-1.7°C 26.5°F-3.1°C 90% Calm Calm -- 30.20 in1022.7 mb 0.11 in2.8 mm 0.00 in/hr0.0 mm/hr 0.59 in15.0 mm
04:30 PM 29.0°F-1.7°C 26.5°F-3.1°C 90% Calm Calm -- 30.19 in1022.4 mb 0.13 in3.3 mm 0.08 in/hr2.0 mm/hr 0.59 in15.0 mm
04:15 PM 29.4°F-1.4°C 27.2°F-2.7°C 91% Calm Calm -- 30.16 in1021.3 mb 0.11 in2.8 mm 0.00 in/hr0.0 mm/hr 0.57 in14.5 mm
04:00 PM 29.8°F-1.2°C 27.3°F-2.6°C 90% Calm Calm -- 30.15 in1021.0 mb 0.11 in2.8 mm 0.03 in/hr0.8 mm/hr 0.57 in14.5 mm
03:45 PM 30.1°F-1.1°C 27.6°F-2.4°C 90% Calm Calm -- 30.17 in1021.7 mb 0.09 in2.3 mm 0.00 in/hr0.0 mm/hr 0.55 in14.0 mm
03:30 PM 30.1°F-1.1°C 27.6°F-2.4°C 90% Calm Calm -- 30.15 in1021.0 mb 0.12 in3.0 mm 0.08 in/hr2.0 mm/hr 0.55 in14.0 mm
03:15 PM 30.3°F-0.9°C 27.8°F-2.3°C 90% Calm Calm -- 30.14 in1020.7 mb 0.10 in2.5 mm 0.00 in/hr0.0 mm/hr 0.53 in13.5 mm
03:00 PM 30.6°F-0.8°C 28.1°F-2.2°C 90% Calm Calm -- 30.16 in1021.3 mb 0.15 in3.8 mm 0.03 in/hr0.8 mm/hr 0.53 in13.5 mm
02:45 PM 30.7°F-0.7°C 28.5°F-1.9°C 91% Calm Calm -- 30.15 in1021.0 mb 0.13 in3.3 mm 0.00 in/hr0.0 mm/hr 0.51 in13.0 mm
02:30 PM 31.0°F-0.6°C 28.8°F-1.8°C 91% Calm Calm -- 30.16 in1021.3 mb 0.16 in4.1 mm 0.16 in/hr4.1 mm/hr 0.51 in13.0 mm
02:15 PM 31.0°F-0.6°C 28.8°F-1.8°C 91% Calm Calm -- 30.15 in1021.0 mb 0.12 in3.0 mm 0.00 in/hr0.0 mm/hr 0.47 in11.9 mm
02:00 PM 31.2°F-0.4°C 29.0°F-1.7°C 91% Calm Calm -- 30.16 in1021.3 mb 0.12 in3.0 mm 0.04 in/hr1.0 mm/hr 0.47 in11.9 mm
01:45 PM 31.5°F-0.3°C 29.3°F-1.5°C 91% Calm Calm -- 30.15 in1021.0 mb 0.09 in2.3 mm 0.04 in/hr1.0 mm/hr 0.44 in11.2 mm
01:30 PM 31.8°F-0.1°C 29.6°F-1.3°C 91% Calm Calm -- 30.17 in1021.7 mb 0.08 in2.0 mm 0.08 in/hr2.0 mm/hr 0.43 in10.9 mm
01:15 PM 32.1°F0.1°C 29.9°F-1.2°C 91% 9.0 mph NE14.5 kmh NE 9.1 mph14.6 kmh 30.18 in1022.0 mb 0.06 in1.5 mm 0.00 in/hr0.0 mm/hr 0.41 in10.4 mm
01:00 PM 32.2°F0.1°C 29.7°F-1.3°C 90% 9.0 mph N14.5 kmh N 13.1 mph21.1 kmh 30.17 in1021.7 mb 0.08 in2.0 mm 0.03 in/hr0.8 mm/hr 0.41 in10.4 mm
12:45 PM 32.4°F0.2°C 29.9°F-1.2°C 90% 7.0 mph N11.3 kmh N 10.1 mph16.3 kmh 30.15 in1021.0 mb 0.06 in1.5 mm 0.00 in/hr0.0 mm/hr 0.39 in9.9 mm
12:30 PM 32.4°F0.2°C 29.9°F-1.2°C 90% 12.0 mph NE19.3 kmh NE 12.1 mph19.5 kmh 30.11 in1019.6 mb 0.10 in2.5 mm 0.04 in/hr1.0 mm/hr 0.39 in9.9 mm
12:15 PM 32.9°F0.5°C 30.4°F-0.9°C 90% 7.0 mph NNE11.3 kmh NNE 15.1 mph24.3 kmh 30.10 in1019.3 mb 0.09 in2.3 mm 0.00 in/hr0.0 mm/hr 0.38 in9.7 mm
12:00 PM 33.2°F0.7°C 30.7°F-0.7°C 90% 5.0 mph NE8.0 kmh NE 7.1 mph11.4 kmh 30.10 in1019.3 mb 0.14 in3.6 mm 0.01 in/hr0.3 mm/hr 0.38 in9.7 mm
11:45 AM 33.4°F0.8°C 31.2°F-0.4°C 91% 8.0 mph N12.9 kmh N 20.2 mph32.5 kmh 30.12 in1020.0 mb 0.13 in3.3 mm 0.08 in/hr2.0 mm/hr 0.37 in9.4 mm
11:30 AM 33.7°F0.9°C 31.5°F-0.3°C 91% 3.0 mph N4.8 kmh N 12.1 mph19.5 kmh 30.17 in1021.7 mb 0.11 in2.8 mm 0.08 in/hr2.0 mm/hr 0.35 in8.9 mm
11:15 AM 34.3°F1.3°C 32.3°F0.2°C 92% 4.0 mph NE6.4 kmh NE 11.1 mph17.9 kmh 30.14 in1020.7 mb 0.09 in2.3 mm 0.04 in/hr1.0 mm/hr 0.33 in8.4 mm
11:00 AM 34.1°F1.2°C 31.9°F-0.1°C 91% 9.0 mph NE14.5 kmh NE 15.1 mph24.3 kmh 30.12 in1020.0 mb 0.08 in2.0 mm 0.04 in/hr1.0 mm/hr 0.32 in8.1 mm
10:45 AM 34.3°F1.3°C 32.1°F0.1°C 91% 7.0 mph NE11.3 kmh NE 15.1 mph24.3 kmh 30.10 in1019.3 mb 0.05 in1.3 mm 0.04 in/hr1.0 mm/hr 0.29 in7.4 mm
10:30 AM 34.9°F1.6°C 32.7°F0.4°C 91% 5.0 mph N8.0 kmh N 13.1 mph21.1 kmh 30.10 in1019.3 mb 0.04 in1.0 mm 0.00 in/hr0.0 mm/hr 0.28 in7.1 mm
10:15 AM 35.5°F1.9°C 33.5°F0.8°C 92% 12.0 mph N19.3 kmh N 12.1 mph19.5 kmh 30.09 in1019.0 mb 0.04 in1.0 mm 0.00 in/hr0.0 mm/hr 0.28 in7.1 mm
10:00 AM 35.8°F2.1°C 33.8°F1.0°C 92% 4.0 mph NE6.4 kmh NE 10.1 mph16.3 kmh 30.08 in1018.6 mb 0.05 in1.3 mm 0.00 in/hr0.0 mm/hr 0.28 in7.1 mm
09:45 AM 35.8°F2.1°C 33.8°F1.0°C 92% 9.0 mph NE14.5 kmh NE 12.1 mph19.5 kmh 30.10 in1019.3 mb 0.05 in1.3 mm 0.00 in/hr0.0 mm/hr 0.28 in7.1 mm
09:30 AM 35.6°F2.0°C 33.9°F1.1°C 93% 4.0 mph NE6.4 kmh NE 15.1 mph24.3 kmh 30.11 in1019.6 mb 0.05 in1.3 mm 0.04 in/hr1.0 mm/hr 0.28 in7.1 mm
09:15 AM 35.8°F2.1°C 33.8°F1.0°C 92% 6.0 mph ENE9.7 kmh ENE 10.1 mph16.3 kmh 30.09 in1019.0 mb 0.04 in1.0 mm 0.04 in/hr1.0 mm/hr 0.27 in6.9 mm
09:00 AM 35.8°F2.1°C 33.8°F1.0°C 92% 2.0 mph NNE3.2 kmh NNE 8.1 mph13.0 kmh 30.09 in1019.0 mb 0.03 in0.8 mm 0.01 in/hr0.3 mm/hr 0.26 in6.6 mm
08:45 AM 35.8°F2.1°C 33.5°F0.8°C 91% 8.0 mph N12.9 kmh N 11.1 mph17.9 kmh 30.09 in1019.0 mb 0.02 in0.5 mm 0.00 in/hr0.0 mm/hr 0.25 in6.4 mm
08:30 AM 36.2°F2.3°C 33.9°F1.1°C 91% 2.0 mph N3.2 kmh N 10.1 mph16.3 kmh 30.08 in1018.6 mb 0.03 in0.8 mm 0.04 in/hr1.0 mm/hr 0.25 in6.4 mm
08:15 AM 36.6°F2.6°C 34.9°F1.6°C 93% 12.0 mph NNE19.3 kmh NNE 17.2 mph27.7 kmh 30.08 in1018.6 mb 0.02 in0.5 mm 0.00 in/hr0.0 mm/hr 0.24 in6.1 mm
08:01 AM 36.8°F2.7°C 35.1°F1.7°C 93% 7.0 mph NNE11.3 kmh NNE 12.1 mph19.5 kmh 30.06 in1017.9 mb 0.02 in0.5 mm 0.00 in/hr0.0 mm/hr 0.24 in6.1 mm
07:45 AM 36.8°F2.7°C 35.1°F1.7°C 93% 4.0 mph NE6.4 kmh NE 14.1 mph22.7 kmh 30.03 in1016.9 mb 0.02 in0.5 mm 0.00 in/hr0.0 mm/hr 0.24 in6.1 mm
07:30 AM 36.8°F2.7°C 34.8°F1.6°C 92% 3.0 mph N4.8 kmh N 9.1 mph14.6 kmh 30.03 in1016.9 mb 0.03 in0.8 mm 0.04 in/hr1.0 mm/hr 0.24 in6.1 mm
07:15 AM 36.8°F2.7°C 34.8°F1.6°C 92% 2.0 mph NE3.2 kmh NE 11.1 mph17.9 kmh 30.04 in1017.3 mb 0.02 in0.5 mm 0.00 in/hr0.0 mm/hr 0.23 in5.8 mm
07:00 AM 36.9°F2.7°C 34.9°F1.6°C 92% 6.0 mph NE9.7 kmh NE 11.1 mph17.9 kmh 30.04 in1017.3 mb 0.02 in0.5 mm 0.01 in/hr0.3 mm/hr 0.23 in5.8 mm
06:45 AM 37.6°F3.1°C 35.6°F2.0°C 92% 7.0 mph NE11.3 kmh NE 10.1 mph16.3 kmh 30.02 in1016.6 mb 0.01 in0.3 mm 0.00 in/hr0.0 mm/hr 0.22 in5.6 mm
06:30 AM 37.9°F3.3°C 35.6°F2.0°C 91% 7.0 mph N11.3 kmh N 11.1 mph17.9 kmh 30.02 in1016.6 mb 0.02 in0.5 mm 0.04 in/hr1.0 mm/hr 0.22 in5.6 mm
06:15 AM 38.2°F3.4°C 35.9°F2.2°C 91% 5.0 mph NNE8.0 kmh NNE 13.1 mph21.1 kmh 30.02 in1016.6 mb 0.01 in0.3 mm 0.00 in/hr0.0 mm/hr 0.21 in5.3 mm
06:00 AM 38.5°F3.6°C 35.9°F2.2°C 90% 5.0 mph NE8.0 kmh NE 14.1 mph22.7 kmh 30.01 in1016.3 mb 0.03 in0.8 mm 0.00 in/hr0.0 mm/hr 0.21 in5.3 mm
05:45 AM 38.9°F3.8°C 36.6°F2.6°C 91% 9.0 mph NNW14.5 kmh NNW 13.1 mph21.1 kmh 30.00 in1015.9 mb 0.03 in0.8 mm 0.00 in/hr0.0 mm/hr 0.21 in5.3 mm
05:30 AM 39.6°F4.2°C 37.6°F3.1°C 92% 6.0 mph NNE9.7 kmh NNE 10.1 mph16.3 kmh 29.99 in1015.6 mb 0.04 in1.0 mm 0.04 in/hr1.0 mm/hr 0.21 in5.3 mm
05:15 AM 39.8°F4.3°C 37.8°F3.2°C 92% 9.0 mph NE14.5 kmh NE 12.1 mph19.5 kmh 30.00 in1015.9 mb 0.03 in0.8 mm 0.00 in/hr0.0 mm/hr 0.20 in5.1 mm
05:00 AM 40.3°F4.6°C 38.3°F3.5°C 92% 4.0 mph NNE6.4 kmh NNE 13.1 mph21.1 kmh 29.98 in1015.2 mb 0.06 in1.5 mm 0.01 in/hr0.3 mm/hr 0.20 in5.1 mm
04:45 AM 40.9°F4.9°C 38.9°F3.8°C 92% 11.0 mph NE17.7 kmh NE 11.1 mph17.9 kmh 29.98 in1015.2 mb 0.05 in1.3 mm 0.04 in/hr1.0 mm/hr 0.19 in4.8 mm
04:30 AM 41.3°F5.2°C 39.3°F4.1°C 92% 11.0 mph N17.7 kmh N 14.1 mph22.7 kmh 29.98 in1015.2 mb 0.04 in1.0 mm 0.04 in/hr1.0 mm/hr 0.18 in4.6 mm
04:15 AM 42.1°F5.6°C 40.1°F4.5°C 92% 6.0 mph ESE9.7 kmh ESE 13.1 mph21.1 kmh 29.97 in1014.9 mb 0.03 in0.8 mm 0.00 in/hr0.0 mm/hr 0.17 in4.3 mm
04:00 AM 42.9°F6.1°C 40.9°F4.9°C 92% 13.0 mph NE20.9 kmh NE 14.1 mph22.7 kmh 29.96 in1014.6 mb 0.07 in1.8 mm 0.03 in/hr0.8 mm/hr 0.17 in4.3 mm
03:45 AM 43.8°F6.6°C 41.8°F5.4°C 92% 7.0 mph NE11.3 kmh NE 12.1 mph19.5 kmh 29.95 in1014.2 mb 0.05 in1.3 mm 0.00 in/hr0.0 mm/hr 0.15 in3.8 mm
03:30 AM 44.3°F6.8°C 42.2°F5.7°C 92% 10.0 mph N16.1 kmh N 15.1 mph24.3 kmh 29.93 in1013.5 mb 0.10 in2.5 mm 0.00 in/hr0.0 mm/hr 0.15 in3.8 mm
03:15 AM 44.9°F7.2°C 43.1°F6.2°C 93% 10.0 mph N16.1 kmh N 12.1 mph19.5 kmh 29.93 in1013.5 mb 0.10 in2.5 mm 0.00 in/hr0.0 mm/hr 0.15 in3.8 mm
03:00 AM 45.7°F7.6°C 43.9°F6.6°C 93% 3.0 mph NE4.8 kmh NE 6.1 mph9.8 kmh 29.93 in1013.5 mb 0.12 in3.0 mm 0.03 in/hr0.8 mm/hr 0.15 in3.8 mm
02:45 AM 46.1°F7.8°C 44.3°F6.8°C 93% 3.0 mph NE4.8 kmh NE 4.0 mph6.4 kmh 29.93 in1013.5 mb 0.10 in2.5 mm 0.00 in/hr0.0 mm/hr 0.13 in3.3 mm
02:30 AM 46.8°F8.2°C 45.0°F7.2°C 93% 4.0 mph NNE6.4 kmh NNE 10.1 mph16.3 kmh 29.94 in1013.9 mb 0.12 in3.0 mm 0.12 in/hr3.0 mm/hr 0.13 in3.3 mm
02:15 AM 47.3°F8.5°C 45.2°F7.3°C 92% 6.0 mph N9.7 kmh N 7.1 mph11.4 kmh 29.95 in1014.2 mb 0.09 in2.3 mm 0.08 in/hr2.0 mm/hr 0.10 in2.5 mm
02:00 AM 48.3°F9.1°C 46.5°F8.1°C 93% 5.0 mph NE8.0 kmh NE 9.1 mph14.6 kmh 29.95 in1014.2 mb 0.07 in1.8 mm 0.01 in/hr0.3 mm/hr 0.08 in2.0 mm
01:45 AM 49.6°F9.8°C 48.1°F8.9°C 94% 3.0 mph NNE4.8 kmh NNE 11.1 mph17.9 kmh 29.93 in1013.5 mb 0.06 in1.5 mm 0.00 in/hr0.0 mm/hr 0.07 in1.8 mm
01:30 AM 50.2°F10.1°C 48.7°F9.3°C 94% 4.0 mph N6.4 kmh N 7.1 mph11.4 kmh 29.93 in1013.5 mb 0.06 in1.5 mm 0.12 in/hr3.0 mm/hr 0.07 in1.8 mm
01:15 AM 51.1°F10.6°C 49.9°F9.9°C 95% 3.0 mph NNE4.8 kmh NNE 13.1 mph21.1 kmh 29.94 in1013.9 mb 0.03 in0.8 mm 0.00 in/hr0.0 mm/hr 0.04 in1.0 mm
01:00 AM 51.9°F11.1°C 50.6°F10.3°C 95% Calm Calm 1.0 mph1.6 kmh 29.93 in1013.5 mb 0.03 in0.8 mm 0.01 in/hr0.3 mm/hr 0.04 in1.0 mm
12:45 AM 51.6°F10.9°C 50.3°F10.2°C 95% 6.0 mph SSW9.7 kmh SSW 12.1 mph19.5 kmh 29.93 in1013.5 mb 0.02 in0.5 mm 0.00 in/hr0.0 mm/hr 0.03 in0.8 mm
12:30 AM 51.1°F10.6°C 49.6°F9.8°C 94% 5.0 mph E8.0 kmh E 7.1 mph11.4 kmh 29.90 in1012.5 mb 0.03 in0.8 mm 0.04 in/hr1.0 mm/hr 0.03 in0.8 mm
12:15 AM 51.1°F10.6°C 49.6°F9.8°C 94% Calm Calm -- 29.92 in1013.2 mb 0.02 in0.5 mm 0.00 in/hr0.0 mm/hr 0.02 in0.5 mm
12:00 AM 51.0°F10.6°C 49.5°F9.7°C 94% Calm Calm 2.0 mph3.2 kmh 29.92 in1013.2 mb 0.02 in0.5 mm 0.00 in/hr0.0 mm/hr 0.02 in0.5 mm